Terminal Aerodrome Forecast
Issued by NWS Jackson, MS

Home | Current Version | Previous Version | Text Only | Print | Product List | Glossary On
Versions: 1 2 3 4 5 6 7 8 9 10 11 12 13
000
FTUS44 KJAN 262344 RRA
TAFGLH
TAF
KGLH 262344Z 2700/2724 14004KT P6SM VCSH FEW050 BKN130
     FM270600 15003KT 6SM BR BKN090 BKN130
     FM270800 00000KT 5SM BR BKN090
     FM270900 00000KT 3SM BR SCT090
     FM271300 08003KT 6SM BR FEW090 SCT130
     FM271500 08004KT P6SM FEW090 SCT130=

USA.gov is the U.S. government's official web portal to all federal, state and local government web resources and services.